sensor_id;sensor_type;location;lat;lon;timestamp;pressure;altitude;pressure_sealevel;temperature;humidity
15442;BME280;7821;48.818;9.798;2022-09-09T07:58:10;74211.34;;;-140.16;64.06
15442;BME280;7821;48.818;9.798;2022-09-09T08:00:37;74229.09;;;-140.16;62.89
15442;BME280;7821;48.818;9.798;2022-09-09T08:03:04;74236.97;;;-140.16;65.93
15442;BME280;7821;48.818;9.798;2022-09-09T08:05:31;74225.16;;;-140.16;61.27
15442;BME280;7821;48.818;9.798;2022-09-09T08:07:59;74187.69;;;-140.16;63.16
15442;BME280;7821;48.818;9.798;2022-09-09T08:10:26;74183.75;;;-140.16;61.77
15442;BME280;7821;48.818;9.798;2022-09-09T08:12:53;74164.03;;;-140.16;60.98
15442;BME280;7821;48.818;9.798;2022-09-09T08:15:41;74150.25;;;-140.16;60.03
15442;BME280;7821;48.818;9.798;2022-09-09T08:18:09;74132.50;;;-140.16;58.52
15442;BME280;7821;48.818;9.798;2022-09-09T08:20:36;74085.19;;;-140.16;59.68
15442;BME280;7821;48.818;9.798;2022-09-09T08:23:03;74051.69;;;-140.16;55.50
15442;BME280;7821;48.818;9.798;2022-09-09T08:25:31;74026.06;;;-140.16;56.74
15442;BME280;7821;48.818;9.798;2022-09-09T08:27:57;74039.88;;;-140.16;55.39
15442;BME280;7821;48.818;9.798;2022-09-09T08:30:24;74043.81;;;-140.16;55.15
15442;BME280;7821;48.818;9.798;2022-09-09T08:32:51;74071.41;;;-140.16;55.77
15442;BME280;7821;48.818;9.798;2022-09-09T08:35:19;74100.97;;;-140.16;55.39
15442;BME280;7821;48.818;9.798;2022-09-09T08:37:47;74130.53;;;-140.16;56.25
15442;BME280;7821;48.818;9.798;2022-09-09T08:40:19;74132.50;;;-140.16;57.60
15442;BME280;7821;48.818;9.798;2022-09-09T08:42:49;74136.44;;;-140.16;57.79
15442;BME280;7821;48.818;9.798;2022-09-09T08:45:25;74128.56;;;-140.16;56.98
15442;BME280;7821;48.818;9.798;2022-09-09T08:50:35;74085.19;;;-140.16;58.24
15442;BME280;7821;48.818;9.798;2022-09-09T08:58:16;74065.50;;;-140.16;55.02
15442;BME280;7821;48.818;9.798;2022-09-09T09:01:02;74065.50;;;-140.16;57.34
15442;BME280;7821;48.818;9.798;2022-09-09T09:06:22;74030.00;;;-140.16;54.57
15442;BME280;7821;48.818;9.798;2022-09-09T09:08:59;74014.25;;;-140.16;57.58
15442;BME280;7821;48.818;9.798;2022-09-09T09:11:37;74031.97;;;-140.16;53.04
15442;BME280;7821;48.818;9.798;2022-09-09T09:17:06;74057.59;;;-140.16;54.98
15442;BME280;7821;48.818;9.798;2022-09-09T09:19:33;74037.91;;;-140.16;54.55
15442;BME280;7821;48.818;9.798;2022-09-09T09:22:06;74030.00;;;-140.16;55.90
15442;BME280;7821;48.818;9.798;2022-09-09T09:27:13;73978.78;;;-140.16;52.58
15442;BME280;7821;48.818;9.798;2022-09-09T09:29:44;73957.09;;;-140.16;53.98
15442;BME280;7821;48.818;9.798;2022-09-09T09:32:32;73929.50;;;-140.16;50.68
15442;BME280;7821;48.818;9.798;2022-09-09T09:35:00;73935.41;;;-140.16;51.36
15442;BME280;7821;48.818;9.798;2022-09-09T09:37:31;73929.50;;;-140.16;49.77
15442;BME280;7821;48.818;9.798;2022-09-09T09:40:11;73955.13;;;-140.16;51.42
15442;BME280;7821;48.818;9.798;2022-09-09T09:42:47;73982.72;;;-140.16;51.69
15442;BME280;7821;48.818;9.798;2022-09-09T09:45:27;73990.59;;;-140.16;53.32
15442;BME280;7821;48.818;9.798;2022-09-09T09:47:59;74004.38;;;-140.16;51.86
15442;BME280;7821;48.818;9.798;2022-09-09T09:50:32;74000.44;;;-140.16;52.54
15442;BME280;7821;48.818;9.798;2022-09-09T09:53:04;73992.56;;;-140.16;54.92
15442;BME280;7821;48.818;9.798;2022-09-09T09:55:44;73982.72;;;-140.16;54.26
15442;BME280;7821;48.818;9.798;2022-09-09T09:58:14;73961.03;;;-140.16;54.90
15442;BME280;7821;48.818;9.798;2022-09-09T10:00:49;73978.78;;;-140.16;54.46
15442;BME280;7821;48.818;9.798;2022-09-09T10:03:20;73986.66;;;-140.16;52.91
15442;BME280;7821;48.818;9.798;2022-09-09T10:05:48;73992.56;;;-140.16;55.67
15442;BME280;7821;48.818;9.798;2022-09-09T10:08:16;73986.66;;;-140.16;54.84
15442;BME280;7821;48.818;9.798;2022-09-09T10:16:07;74020.16;;;-140.16;55.39
15442;BME280;7821;48.818;9.798;2022-09-09T10:18:56;73994.53;;;-140.16;57.63
15442;BME280;7821;48.818;9.798;2022-09-09T10:21:29;73939.34;;;-140.16;53.90
15442;BME280;7821;48.818;9.798;2022-09-09T10:34:40;73868.41;;;-140.16;50.54
15442;BME280;7821;48.818;9.798;2022-09-09T10:37:21;73848.69;;;-140.16;51.91
15442;BME280;7821;48.818;9.798;2022-09-09T10:39:56;73815.19;;;-140.16;50.80
15442;BME280;7821;48.818;9.798;2022-09-09T10:42:29;73825.03;;;-140.16;50.08
15442;BME280;7821;48.818;9.798;2022-09-09T10:56:07;73758.03;;;-140.16;46.92
15442;BME280;7821;48.818;9.798;2022-09-09T10:58:47;73763.94;;;-140.16;42.00
15442;BME280;7821;48.818;9.798;2022-09-09T11:01:22;73750.13;;;-140.16;45.14
15442;BME280;7821;48.818;9.798;2022-09-09T11:03:54;73754.06;;;-140.16;44.32
15442;BME280;7821;48.818;9.798;2022-09-09T11:06:23;73779.69;;;-140.16;42.96
15442;BME280;7821;48.818;9.798;2022-09-09T11:08:54;73809.25;;;-140.16;42.34
15442;BME280;7821;48.818;9.798;2022-09-09T11:11:31;73819.13;;;-140.16;42.53
15442;BME280;7821;48.818;9.798;2022-09-09T11:21:42;73726.47;;;-140.16;41.54
15442;BME280;7821;48.818;9.798;2022-09-09T11:24:13;73679.19;;;-140.16;40.32
15442;BME280;7821;48.818;9.798;2022-09-09T11:31:57;73631.88;;;-140.16;35.92
15442;BME280;7821;48.818;9.798;2022-09-09T11:37:04;73673.28;;;-140.16;33.46
15442;BME280;7821;48.818;9.798;2022-09-09T11:39:36;73754.06;;;-140.16;34.98
15442;BME280;7821;48.818;9.798;2022-09-09T11:42:15;73785.63;;;-140.16;37.45
15442;BME280;7821;48.818;9.798;2022-09-09T11:44:42;73809.25;;;-140.16;37.16
15442;BME280;7821;48.818;9.798;2022-09-09T11:49:52;73789.56;;;-140.16;37.07
15442;BME280;7821;48.818;9.798;2022-09-09T11:52:24;73720.56;;;-140.16;37.70
15442;BME280;7821;48.818;9.798;2022-09-09T11:54:54;73702.84;;;-140.16;35.72
15442;BME280;7821;48.818;9.798;2022-09-09T11:59:50;73564.88;;;-140.16;35.14
15442;BME280;7821;48.818;9.798;2022-09-09T12:02:24;73527.44;;;-140.16;33.05
15442;BME280;7821;48.818;9.798;2022-09-09T12:05:00;73519.56;;;-140.16;31.50
15442;BME280;7821;48.818;9.798;2022-09-09T12:07:38;73491.97;;;-140.16;31.58
15442;BME280;7821;48.818;9.798;2022-09-09T12:12:47;73434.81;;;-140.16;30.97
15442;BME280;7821;48.818;9.798;2022-09-09T12:15:24;73458.47;;;-140.16;31.46
15442;BME280;7821;48.818;9.798;2022-09-09T12:17:54;73529.41;;;-140.16;31.91
15442;BME280;7821;48.818;9.798;2022-09-09T12:23:15;73852.63;;;-140.16;41.00
15442;BME280;7821;48.818;9.798;2022-09-09T12:28:33;74110.81;;;-140.16;55.35
15442;BME280;7821;48.818;9.798;2022-09-09T12:31:12;74104.91;;;-140.16;56.73
15442;BME280;7821;48.818;9.798;2022-09-09T12:33:46;74126.59;;;-140.16;57.03
15442;BME280;7821;48.818;9.798;2022-09-09T12:36:24;74126.59;;;-140.16;58.74
15442;BME280;7821;48.818;9.798;2022-09-09T12:38:54;74124.63;;;-140.16;57.06
15442;BME280;7821;48.818;9.798;2022-09-09T12:41:26;74142.38;;;-140.16;59.52
15442;BME280;7821;48.818;9.798;2022-09-09T12:44:06;74140.41;;;-140.16;60.62
15442;BME280;7821;48.818;9.798;2022-09-09T12:46:44;74112.81;;;-140.16;60.30
15442;BME280;7821;48.818;9.798;2022-09-09T12:49:29;74035.94;;;-140.16;56.20
15442;BME280;7821;48.818;9.798;2022-09-09T12:52:01;73935.41;;;-140.16;57.02
15442;BME280;7821;48.818;9.798;2022-09-09T12:54:28;73935.41;;;-140.16;53.06
15442;BME280;7821;48.818;9.798;2022-09-09T12:56:55;73947.22;;;-140.16;50.08
15442;BME280;7821;48.818;9.798;2022-09-09T12:59:25;73990.59;;;-140.16;52.86
15442;BME280;7821;48.818;9.798;2022-09-09T13:01:58;73929.50;;;-140.16;51.78
15442;BME280;7821;48.818;9.798;2022-09-09T13:04:25;73840.81;;;-140.16;48.26
15442;BME280;7821;48.818;9.798;2022-09-09T13:06:52;73817.16;;;-140.16;44.95
15442;BME280;7821;48.818;9.798;2022-09-09T13:09:19;73795.47;;;-140.16;46.66
15442;BME280;7821;48.818;9.798;2022-09-09T13:11:50;73793.50;;;-140.16;43.46
15442;BME280;7821;48.818;9.798;2022-09-09T13:14:34;73825.03;;;-140.16;44.40
15442;BME280;7821;48.818;9.798;2022-09-09T13:17:04;73827.00;;;-140.16;42.36
15442;BME280;7821;48.818;9.798;2022-09-09T13:19:32;73787.59;;;-140.16;41.63
15442;BME280;7821;48.818;9.798;2022-09-09T13:22:10;73789.56;;;-140.16;38.03
15442;BME280;7821;48.818;9.798;2022-09-09T13:24:39;73785.63;;;-140.16;38.73
15442;BME280;7821;48.818;9.798;2022-09-09T13:29:52;73765.91;;;-140.16;39.57
15442;BME280;7821;48.818;9.798;2022-09-09T13:32:23;73732.41;;;-140.16;42.32
15442;BME280;7821;48.818;9.798;2022-09-09T13:34:51;73742.25;;;-140.16;39.87
15442;BME280;7821;48.818;9.798;2022-09-09T13:37:34;73789.56;;;-140.16;39.27
15442;BME280;7821;48.818;9.798;2022-09-09T13:40:02;73783.66;;;-140.16;43.05
15442;BME280;7821;48.818;9.798;2022-09-09T13:42:30;73742.25;;;-140.16;41.49
15442;BME280;7821;48.818;9.798;2022-09-09T13:44:57;73704.81;;;-140.16;38.52
15442;BME280;7821;48.818;9.798;2022-09-09T13:47:33;73685.09;;;-140.16;39.36
15442;BME280;7821;48.818;9.798;2022-09-09T13:52:50;73643.72;;;-140.16;38.55
15442;BME280;7821;48.818;9.798;2022-09-09T13:55:22;73663.41;;;-140.16;37.87
15442;BME280;7821;48.818;9.798;2022-09-09T14:00:18;73647.66;;;-140.16;38.12
15442;BME280;7821;48.818;9.798;2022-09-09T14:02:46;73702.84;;;-140.16;38.26
15442;BME280;7821;48.818;9.798;2022-09-09T14:05:13;73750.13;;;-140.16;41.88
15442;BME280;7821;48.818;9.798;2022-09-09T14:07:39;73779.69;;;-140.16;40.33
15442;BME280;7821;48.818;9.798;2022-09-09T14:10:08;73807.28;;;-140.16;41.40
15442;BME280;7821;48.818;9.798;2022-09-09T14:12:35;73821.09;;;-140.16;43.40
15442;BME280;7821;48.818;9.798;2022-09-09T14:15:06;73825.03;;;-140.16;44.80
15442;BME280;7821;48.818;9.798;2022-09-09T14:17:33;73815.19;;;-140.16;44.03
15442;BME280;7821;48.818;9.798;2022-09-09T14:20:06;73811.22;;;-140.16;43.26
15442;BME280;7821;48.818;9.798;2022-09-09T14:22:36;73830.94;;;-140.16;45.35
15442;BME280;7821;48.818;9.798;2022-09-09T14:25:03;73828.97;;;-140.16;45.82
15442;BME280;7821;48.818;9.798;2022-09-09T14:27:29;73819.13;;;-140.16;43.80
15442;BME280;7821;48.818;9.798;2022-09-09T14:29:56;73795.47;;;-140.16;44.71
15442;BME280;7821;48.818;9.798;2022-09-09T14:32:23;73785.63;;;-140.16;43.79
15442;BME280;7821;48.818;9.798;2022-09-09T14:34:52;73789.56;;;-140.16;42.84
15442;BME280;7821;48.818;9.798;2022-09-09T14:37:18;73734.38;;;-140.16;41.49
15442;BME280;7821;48.818;9.798;2022-09-09T14:39:46;73671.31;;;-140.16;41.37
15442;BME280;7821;48.818;9.798;2022-09-09T14:42:13;73659.47;;;-140.16;38.98
15442;BME280;7821;48.818;9.798;2022-09-09T14:44:40;73651.59;;;-140.16;37.91
15442;BME280;7821;48.818;9.798;2022-09-09T14:47:07;73651.59;;;-140.16;37.36
15442;BME280;7821;48.818;9.798;2022-09-09T14:49:37;73622.03;;;-140.16;36.78
15442;BME280;7821;48.818;9.798;2022-09-09T14:52:04;73659.47;;;-140.16;34.97
15442;BME280;7821;48.818;9.798;2022-09-09T14:54:31;73627.94;;;-140.16;36.41
15442;BME280;7821;48.818;9.798;2022-09-09T14:56:58;73578.66;;;-140.16;36.19
15442;BME280;7821;48.818;9.798;2022-09-09T14:59:25;73602.31;;;-140.16;34.44
15442;BME280;7821;48.818;9.798;2022-09-09T15:01:52;73624.00;;;-140.16;34.68
15442;BME280;7821;48.818;9.798;2022-09-09T15:04:19;73637.78;;;-140.16;35.59
15442;BME280;7821;48.818;9.798;2022-09-09T15:06:47;73620.06;;;-140.16;37.62
15442;BME280;7821;48.818;9.798;2022-09-09T15:09:14;73627.94;;;-140.16;33.88
15442;BME280;7821;48.818;9.798;2022-09-09T15:11:41;73657.50;;;-140.16;35.67
15442;BME280;7821;48.818;9.798;2022-09-09T15:14:08;73698.91;;;-140.16;35.90
15442;BME280;7821;48.818;9.798;2022-09-09T15:16:35;73685.09;;;-140.16;35.83
15442;BME280;7821;48.818;9.798;2022-09-09T15:19:02;73665.38;;;-140.16;36.00
15442;BME280;7821;48.818;9.798;2022-09-09T15:21:31;73655.53;;;-140.16;37.40
15442;BME280;7821;48.818;9.798;2022-09-09T15:23:58;73691.00;;;-140.16;35.91
15442;BME280;7821;48.818;9.798;2022-09-09T15:26:25;73742.25;;;-140.16;35.45
15442;BME280;7821;48.818;9.798;2022-09-09T15:28:52;73787.59;;;-140.16;35.59
15442;BME280;7821;48.818;9.798;2022-09-09T15:31:22;73801.38;;;-140.16;36.72
15442;BME280;7821;48.818;9.798;2022-09-09T15:33:53;73779.69;;;-140.16;36.98
15442;BME280;7821;48.818;9.798;2022-09-09T15:36:24;73718.59;;;-140.16;36.86
15442;BME280;7821;48.818;9.798;2022-09-09T15:38:50;73685.09;;;-140.16;34.92
15442;BME280;7821;48.818;9.798;2022-09-09T15:41:17;73657.50;;;-140.16;34.06
15442;BME280;7821;48.818;9.798;2022-09-09T15:43:46;73637.78;;;-140.16;35.06
15442;BME280;7821;48.818;9.798;2022-09-09T15:48:43;73671.31;;;-140.16;33.69
15442;BME280;7821;48.818;9.798;2022-09-09T15:51:10;73691.00;;;-140.16;33.82
15442;BME280;7821;48.818;9.798;2022-09-09T15:53:57;73675.25;;;-140.16;34.37
15442;BME280;7821;48.818;9.798;2022-09-09T15:56:27;73659.47;;;-140.16;33.06
15442;BME280;7821;48.818;9.798;2022-09-09T15:58:54;73659.47;;;-140.16;32.35
15442;BME280;7821;48.818;9.798;2022-09-09T16:01:21;73685.09;;;-140.16;32.58
15442;BME280;7821;48.818;9.798;2022-09-09T16:03:50;73702.84;;;-140.16;33.97
15442;BME280;7821;48.818;9.798;2022-09-09T16:06:18;73758.03;;;-140.16;33.26
15442;BME280;7821;48.818;9.798;2022-09-09T16:08:45;73811.22;;;-140.16;34.33
15442;BME280;7821;48.818;9.798;2022-09-09T16:11:13;73830.94;;;-140.16;33.99
15442;BME280;7821;48.818;9.798;2022-09-09T16:13:44;73844.75;;;-140.16;36.18
15442;BME280;7821;48.818;9.798;2022-09-09T16:16:16;73856.56;;;-140.16;35.78
15442;BME280;7821;48.818;9.798;2022-09-09T16:18:43;73860.50;;;-140.16;35.46
15442;BME280;7821;48.818;9.798;2022-09-09T16:21:14;73864.44;;;-140.16;35.00
15442;BME280;7821;48.818;9.798;2022-09-09T16:23:42;73884.16;;;-140.16;35.50
15442;BME280;7821;48.818;9.798;2022-09-09T16:26:13;73897.97;;;-140.16;35.88
15442;BME280;7821;48.818;9.798;2022-09-09T16:28:40;73917.66;;;-140.16;35.90
15442;BME280;7821;48.818;9.798;2022-09-09T16:31:07;73933.44;;;-140.16;35.60
15442;BME280;7821;48.818;9.798;2022-09-09T16:33:34;73949.19;;;-140.16;36.84
15442;BME280;7821;48.818;9.798;2022-09-09T16:36:17;73972.84;;;-140.16;37.25
15442;BME280;7821;48.818;9.798;2022-09-09T16:38:44;73970.88;;;-140.16;37.98
15442;BME280;7821;48.818;9.798;2022-09-09T16:41:11;73982.72;;;-140.16;37.79
15442;BME280;7821;48.818;9.798;2022-09-09T16:43:38;73978.78;;;-140.16;38.61
15442;BME280;7821;48.818;9.798;2022-09-09T16:46:13;73998.47;;;-140.16;37.98
15442;BME280;7821;48.818;9.798;2022-09-09T16:48:44;74014.25;;;-140.16;39.58
15442;BME280;7821;48.818;9.798;2022-09-09T16:51:18;74018.19;;;-140.16;40.22
15442;BME280;7821;48.818;9.798;2022-09-09T16:53:45;74024.09;;;-140.16;39.76
15442;BME280;7821;48.818;9.798;2022-09-09T16:56:13;74024.09;;;-140.16;39.93
15442;BME280;7821;48.818;9.798;2022-09-09T16:58:40;74026.06;;;-140.16;40.17
15442;BME280;7821;48.818;9.798;2022-09-09T17:01:09;74030.00;;;-140.16;39.55
15442;BME280;7821;48.818;9.798;2022-09-09T17:03:37;74030.00;;;-140.16;40.09
15442;BME280;7821;48.818;9.798;2022-09-09T17:06:08;74028.03;;;-140.16;40.50
15442;BME280;7821;48.818;9.798;2022-09-09T17:08:34;74026.06;;;-140.16;39.67
15442;BME280;7821;48.818;9.798;2022-09-09T17:11:01;74030.00;;;-140.16;40.04
15442;BME280;7821;48.818;9.798;2022-09-09T17:13:27;74031.97;;;-140.16;40.31
15442;BME280;7821;48.818;9.798;2022-09-09T17:15:54;74037.91;;;-140.16;39.97
15442;BME280;7821;48.818;9.798;2022-09-09T17:18:25;74030.00;;;-140.16;40.41
15442;BME280;7821;48.818;9.798;2022-09-09T17:20:54;74045.78;;;-140.16;41.56
15442;BME280;7821;48.818;9.798;2022-09-09T17:23:20;74053.66;;;-140.16;40.83
15442;BME280;7821;48.818;9.798;2022-09-09T17:25:55;74063.53;;;-140.16;40.72
15442;BME280;7821;48.818;9.798;2022-09-09T17:28:22;74075.34;;;-140.16;41.14
15442;BME280;7821;48.818;9.798;2022-09-09T17:30:54;74085.19;;;-140.16;41.27
15442;BME280;7821;48.818;9.798;2022-09-09T17:33:20;74093.09;;;-140.16;41.82
15442;BME280;7821;48.818;9.798;2022-09-09T17:35:47;74110.81;;;-140.16;43.35
15442;BME280;7821;48.818;9.798;2022-09-09T17:38:15;74128.56;;;-140.16;44.14
15442;BME280;7821;48.818;9.798;2022-09-09T17:40:43;74160.09;;;-140.16;45.33
15442;BME280;7821;48.818;9.798;2022-09-09T17:43:10;74168.00;;;-140.16;45.52
15442;BME280;7821;48.818;9.798;2022-09-09T17:45:36;74195.59;;;-140.16;46.33
15442;BME280;7821;48.818;9.798;2022-09-09T17:48:03;74207.41;;;-140.16;46.56
15442;BME280;7821;48.818;9.798;2022-09-09T17:50:30;74223.19;;;-140.16;46.89
15442;BME280;7821;48.818;9.798;2022-09-09T17:52:58;74240.91;;;-140.16;46.36
15442;BME280;7821;48.818;9.798;2022-09-09T17:55:25;74254.72;;;-140.16;46.52
15442;BME280;7821;48.818;9.798;2022-09-09T17:57:51;74272.47;;;-140.16;47.61
15442;BME280;7821;48.818;9.798;2022-09-09T18:00:18;74274.44;;;-140.16;46.51
15442;BME280;7821;48.818;9.798;2022-09-09T18:02:45;74296.13;;;-140.16;46.48
15442;BME280;7821;48.818;9.798;2022-09-09T18:05:13;74317.78;;;-140.16;47.08
15442;BME280;7821;48.818;9.798;2022-09-09T18:07:41;74331.59;;;-140.16;46.88
15442;BME280;7821;48.818;9.798;2022-09-09T18:10:08;74337.50;;;-140.16;47.93
15442;BME280;7821;48.818;9.798;2022-09-09T18:12:34;74351.31;;;-140.16;48.79
15442;BME280;7821;48.818;9.798;2022-09-09T18:15:01;74359.19;;;-140.16;48.07
15442;BME280;7821;48.818;9.798;2022-09-09T18:17:29;74373.00;;;-140.16;48.05
15442;BME280;7821;48.818;9.798;2022-09-09T18:19:56;74380.88;;;-140.16;48.84
15442;BME280;7821;48.818;9.798;2022-09-09T18:22:23;74382.84;;;-140.16;49.72
15442;BME280;7821;48.818;9.798;2022-09-09T18:24:49;74380.88;;;-140.16;50.03
15442;BME280;7821;48.818;9.798;2022-09-09T18:27:17;74384.81;;;-140.16;48.39
15442;BME280;7821;48.818;9.798;2022-09-09T18:29:43;74390.72;;;-140.16;49.96
15442;BME280;7821;48.818;9.798;2022-09-09T18:32:10;74398.63;;;-140.16;49.52
15442;BME280;7821;48.818;9.798;2022-09-09T18:34:36;74404.53;;;-140.16;48.53
15442;BME280;7821;48.818;9.798;2022-09-09T18:37:04;74416.34;;;-140.16;48.83
15442;BME280;7821;48.818;9.798;2022-09-09T18:39:33;74428.19;;;-140.16;49.74
15442;BME280;7821;48.818;9.798;2022-09-09T18:41:59;74436.06;;;-140.16;50.58
15442;BME280;7821;48.818;9.798;2022-09-09T18:44:28;74445.94;;;-140.16;50.69
15442;BME280;7821;48.818;9.798;2022-09-09T18:46:55;74440.00;;;-140.16;50.55
15442;BME280;7821;48.818;9.798;2022-09-09T18:49:22;74445.94;;;-140.16;51.96
15442;BME280;7821;48.818;9.798;2022-09-09T18:51:49;74459.72;;;-140.16;53.70
15442;BME280;7821;48.818;9.798;2022-09-09T18:54:23;74465.63;;;-140.16;54.46
15442;BME280;7821;48.818;9.798;2022-09-09T18:56:52;74475.50;;;-140.16;54.54
15442;BME280;7821;48.818;9.798;2022-09-09T18:59:19;74483.38;;;-140.16;53.14
15442;BME280;7821;48.818;9.798;2022-09-09T19:01:46;74483.38;;;-140.16;54.68
15442;BME280;7821;48.818;9.798;2022-09-09T19:04:14;74479.44;;;-140.16;55.92
15442;BME280;7821;48.818;9.798;2022-09-09T19:06:42;74489.28;;;-140.16;56.43
15442;BME280;7821;48.818;9.798;2022-09-09T19:09:09;74495.22;;;-140.16;56.68
15442;BME280;7821;48.818;9.798;2022-09-09T19:11:36;74499.16;;;-140.16;56.81
15442;BME280;7821;48.818;9.798;2022-09-09T19:14:04;74510.97;;;-140.16;56.75
15442;BME280;7821;48.818;9.798;2022-09-09T19:16:31;74509.00;;;-140.16;57.11
15442;BME280;7821;48.818;9.798;2022-09-09T19:18:59;74510.97;;;-140.16;58.07
15442;BME280;7821;48.818;9.798;2022-09-09T19:21:27;74510.97;;;-140.16;57.65
15442;BME280;7821;48.818;9.798;2022-09-09T19:23:58;74518.88;;;-140.16;57.40
15442;BME280;7821;48.818;9.798;2022-09-09T19:26:26;74528.72;;;-140.16;57.92
15442;BME280;7821;48.818;9.798;2022-09-09T19:28:53;74526.75;;;-140.16;58.01
15442;BME280;7821;48.818;9.798;2022-09-09T19:31:20;74538.56;;;-140.16;58.22
15442;BME280;7821;48.818;9.798;2022-09-09T19:33:48;74550.41;;;-140.16;59.89
15442;BME280;7821;48.818;9.798;2022-09-09T19:36:15;74562.22;;;-140.16;60.75
15442;BME280;7821;48.818;9.798;2022-09-09T19:38:46;74558.28;;;-140.16;59.28
15442;BME280;7821;48.818;9.798;2022-09-09T19:41:14;74574.06;;;-140.16;59.47
15442;BME280;7821;48.818;9.798;2022-09-09T19:43:41;74585.88;;;-140.16;61.49
15442;BME280;7821;48.818;9.798;2022-09-09T19:46:08;74587.84;;;-140.16;60.92
15442;BME280;7821;48.818;9.798;2022-09-09T19:48:37;74587.84;;;-140.16;60.75
15442;BME280;7821;48.818;9.798;2022-09-09T19:51:08;74593.78;;;-140.16;61.50
15442;BME280;7821;48.818;9.798;2022-09-09T19:53:36;74597.72;;;-140.16;60.81
15442;BME280;7821;48.818;9.798;2022-09-09T19:56:03;74613.47;;;-140.16;63.43
15442;BME280;7821;48.818;9.798;2022-09-09T19:58:31;74621.38;;;-140.16;64.49
15442;BME280;7821;48.818;9.798;2022-09-09T20:01:09;74623.34;;;-140.16;65.44
15442;BME280;7821;48.818;9.798;2022-09-09T20:03:37;74637.13;;;-140.16;64.82
15442;BME280;7821;48.818;9.798;2022-09-09T20:06:04;74633.19;;;-140.16;65.33
15442;BME280;7821;48.818;9.798;2022-09-09T20:08:31;74639.09;;;-140.16;65.11
15442;BME280;7821;48.818;9.798;2022-09-09T20:10:58;74641.09;;;-140.16;64.92
15442;BME280;7821;48.818;9.798;2022-09-09T20:13:28;74645.03;;;-140.16;67.07
15442;BME280;7821;48.818;9.798;2022-09-09T20:15:55;74658.81;;;-140.16;66.80
15442;BME280;7821;48.818;9.798;2022-09-09T20:18:22;74664.75;;;-140.16;67.07
15442;BME280;7821;48.818;9.798;2022-09-09T20:20:48;74666.72;;;-140.16;68.13
15442;BME280;7821;48.818;9.798;2022-09-09T20:23:15;74662.78;;;-140.16;68.50
15442;BME280;7821;48.818;9.798;2022-09-09T20:25:43;74664.75;;;-140.16;67.47
15442;BME280;7821;48.818;9.798;2022-09-09T20:28:10;74672.63;;;-140.16;67.67
15442;BME280;7821;48.818;9.798;2022-09-09T20:30:36;74676.56;;;-140.16;66.54
15442;BME280;7821;48.818;9.798;2022-09-09T20:33:03;74670.66;;;-140.16;66.77
15442;BME280;7821;48.818;9.798;2022-09-09T20:35:30;74676.56;;;-140.16;65.86
15442;BME280;7821;48.818;9.798;2022-09-09T20:37:57;74680.50;;;-140.16;66.36
15442;BME280;7821;48.818;9.798;2022-09-09T20:40:24;74692.34;;;-140.16;67.31
15442;BME280;7821;48.818;9.798;2022-09-09T20:42:50;74700.22;;;-140.16;68.00
15442;BME280;7821;48.818;9.798;2022-09-09T20:45:17;74702.19;;;-140.16;69.06
15442;BME280;7821;48.818;9.798;2022-09-09T20:47:44;74708.09;;;-140.16;69.45
15442;BME280;7821;48.818;9.798;2022-09-09T20:50:11;74704.16;;;-140.16;69.31
15442;BME280;7821;48.818;9.798;2022-09-09T20:52:37;74700.22;;;-140.16;69.39
15442;BME280;7821;48.818;9.798;2022-09-09T20:55:04;74698.25;;;-140.16;67.34
15442;BME280;7821;48.818;9.798;2022-09-09T20:57:32;74692.34;;;-140.16;68.28
15442;BME280;7821;48.818;9.798;2022-09-09T20:59:59;74694.31;;;-140.16;67.34
15442;BME280;7821;48.818;9.798;2022-09-09T21:02:25;74700.22;;;-140.16;68.67
15442;BME280;7821;48.818;9.798;2022-09-09T21:04:52;74704.16;;;-140.16;67.89
15442;BME280;7821;48.818;9.798;2022-09-09T21:07:18;74706.13;;;-140.16;68.93
15442;BME280;7821;48.818;9.798;2022-09-09T21:09:45;74712.06;;;-140.16;69.50
15442;BME280;7821;48.818;9.798;2022-09-09T21:12:11;74719.94;;;-140.16;69.27
15442;BME280;7821;48.818;9.798;2022-09-09T21:14:38;74719.94;;;-140.16;70.05
15442;BME280;7821;48.818;9.798;2022-09-09T21:17:04;74727.81;;;-140.16;69.86
15442;BME280;7821;48.818;9.798;2022-09-09T21:19:30;74727.81;;;-140.16;70.06
15442;BME280;7821;48.818;9.798;2022-09-09T21:21:57;74723.88;;;-140.16;70.18
15442;BME280;7821;48.818;9.798;2022-09-09T21:24:24;74727.81;;;-140.16;69.84
15442;BME280;7821;48.818;9.798;2022-09-09T21:26:50;74727.81;;;-140.16;70.29
15442;BME280;7821;48.818;9.798;2022-09-09T21:29:17;74731.75;;;-140.16;71.31
15442;BME280;7821;48.818;9.798;2022-09-09T21:31:44;74737.69;;;-140.16;71.14
15442;BME280;7821;48.818;9.798;2022-09-09T21:34:10;74739.66;;;-140.16;72.26
15442;BME280;7821;48.818;9.798;2022-09-09T21:36:38;74739.66;;;-140.16;70.98
15442;BME280;7821;48.818;9.798;2022-09-09T21:39:06;74737.69;;;-140.16;71.72
15442;BME280;7821;48.818;9.798;2022-09-09T21:41:32;74719.94;;;-140.16;71.08
15442;BME280;7821;48.818;9.798;2022-09-09T21:43:58;74706.13;;;-140.16;70.68
15442;BME280;7821;48.818;9.798;2022-09-09T21:46:25;74704.16;;;-140.16;70.22
15442;BME280;7821;48.818;9.798;2022-09-09T21:48:53;74694.31;;;-140.16;69.76
15442;BME280;7821;48.818;9.798;2022-09-09T21:51:23;74678.53;;;-140.16;68.18
15442;BME280;7821;48.818;9.798;2022-09-09T21:53:49;74680.50;;;-140.16;68.85
15442;BME280;7821;48.818;9.798;2022-09-09T21:56:19;74670.66;;;-140.16;68.21
15442;BME280;7821;48.818;9.798;2022-09-09T21:58:45;74668.69;;;-140.16;68.54
15442;BME280;7821;48.818;9.798;2022-09-09T22:01:15;74672.63;;;-140.16;69.01
15442;BME280;7821;48.818;9.798;2022-09-09T22:03:42;74668.69;;;-140.16;69.21
15442;BME280;7821;48.818;9.798;2022-09-09T22:06:10;74676.56;;;-140.16;68.15
15442;BME280;7821;48.818;9.798;2022-09-09T22:08:37;74682.47;;;-140.16;67.96
15442;BME280;7821;48.818;9.798;2022-09-09T22:11:06;74684.44;;;-140.16;68.71
15442;BME280;7821;48.818;9.798;2022-09-09T22:13:33;74696.28;;;-140.16;69.05
15442;BME280;7821;48.818;9.798;2022-09-09T22:16:01;74692.34;;;-140.16;69.30
15442;BME280;7821;48.818;9.798;2022-09-09T22:18:28;74696.28;;;-140.16;69.82
15442;BME280;7821;48.818;9.798;2022-09-09T22:20:57;74700.22;;;-140.16;70.58